sensor_id;sensor_type;location;lat;lon;timestamp;P1;durP1;ratioP1;P2;durP2;ratioP2
74892;SDS011;63446;56.272;43.922;2022-12-29T00:01:42;30.20;;;10.15;;
74892;SDS011;63446;56.272;43.922;2022-12-29T00:04:09;34.63;;;11.35;;
74892;SDS011;63446;56.272;43.922;2022-12-29T00:06:39;35.53;;;11.23;;
74892;SDS011;63446;56.272;43.922;2022-12-29T00:09:04;35.50;;;11.23;;
74892;SDS011;63446;56.272;43.922;2022-12-29T00:11:31;30.35;;;9.77;;
74892;SDS011;63446;56.272;43.922;2022-12-29T00:13:56;25.35;;;8.25;;
74892;SDS011;63446;56.272;43.922;2022-12-29T00:16:41;35.03;;;12.03;;
74892;SDS011;63446;56.272;43.922;2022-12-29T00:19:08;33.85;;;11.23;;
74892;SDS011;63446;56.272;43.922;2022-12-29T00:21:55;33.90;;;11.02;;
74892;SDS011;63446;56.272;43.922;2022-12-29T00:24:39;35.65;;;11.05;;
74892;SDS011;63446;56.272;43.922;2022-12-29T00:27:23;34.20;;;10.88;;
74892;SDS011;63446;56.272;43.922;2022-12-29T00:30:08;33.93;;;11.20;;
74892;SDS011;63446;56.272;43.922;2022-12-29T00:32:54;34.35;;;10.82;;
74892;SDS011;63446;56.272;43.922;2022-12-29T00:35:40;29.02;;;8.95;;
74892;SDS011;63446;56.272;43.922;2022-12-29T00:38:11;26.30;;;8.32;;
74892;SDS011;63446;56.272;43.922;2022-12-29T00:40:56;34.15;;;10.90;;
74892;SDS011;63446;56.272;43.922;2022-12-29T00:43:41;28.93;;;9.93;;
74892;SDS011;63446;56.272;43.922;2022-12-29T00:46:25;32.55;;;9.75;;
74892;SDS011;63446;56.272;43.922;2022-12-29T00:48:51;31.70;;;11.05;;
74892;SDS011;63446;56.272;43.922;2022-12-29T00:51:35;23.45;;;9.00;;
74892;SDS011;63446;56.272;43.922;2022-12-29T00:54:01;31.90;;;10.40;;
74892;SDS011;63446;56.272;43.922;2022-12-29T00:56:27;33.75;;;11.65;;
74892;SDS011;63446;56.272;43.922;2022-12-29T00:58:53;35.90;;;11.13;;
74892;SDS011;63446;56.272;43.922;2022-12-29T01:01:18;34.87;;;11.50;;
74892;SDS011;63446;56.272;43.922;2022-12-29T01:03:44;33.77;;;11.47;;
74892;SDS011;63446;56.272;43.922;2022-12-29T01:06:11;28.70;;;10.63;;
74892;SDS011;63446;56.272;43.922;2022-12-29T01:08:37;31.95;;;10.85;;
74892;SDS011;63446;56.272;43.922;2022-12-29T01:11:05;34.78;;;10.38;;
74892;SDS011;63446;56.272;43.922;2022-12-29T01:13:34;29.35;;;10.25;;
74892;SDS011;63446;56.272;43.922;2022-12-29T01:16:01;35.07;;;11.13;;
74892;SDS011;63446;56.272;43.922;2022-12-29T01:18:28;33.45;;;11.27;;
74892;SDS011;63446;56.272;43.922;2022-12-29T01:21:04;34.53;;;10.55;;
74892;SDS011;63446;56.272;43.922;2022-12-29T01:23:31;31.98;;;10.32;;
74892;SDS011;63446;56.272;43.922;2022-12-29T01:26:07;38.40;;;12.30;;
74892;SDS011;63446;56.272;43.922;2022-12-29T01:28:38;36.40;;;11.73;;
74892;SDS011;63446;56.272;43.922;2022-12-29T01:31:05;33.20;;;12.13;;
74892;SDS011;63446;56.272;43.922;2022-12-29T01:33:32;35.72;;;10.93;;
74892;SDS011;63446;56.272;43.922;2022-12-29T01:36:01;35.60;;;10.87;;
74892;SDS011;63446;56.272;43.922;2022-12-29T01:38:32;35.90;;;14.05;;
74892;SDS011;63446;56.272;43.922;2022-12-29T01:40:58;34.13;;;11.63;;
74892;SDS011;63446;56.272;43.922;2022-12-29T01:46:13;33.27;;;11.60;;
74892;SDS011;63446;56.272;43.922;2022-12-29T01:49:04;36.03;;;11.45;;
74892;SDS011;63446;56.272;43.922;2022-12-29T01:51:42;33.83;;;11.93;;
74892;SDS011;63446;56.272;43.922;2022-12-29T01:54:25;35.33;;;11.77;;
74892;SDS011;63446;56.272;43.922;2022-12-29T01:56:57;36.63;;;12.00;;
74892;SDS011;63446;56.272;43.922;2022-12-29T01:59:28;34.30;;;11.20;;
74892;SDS011;63446;56.272;43.922;2022-12-29T02:01:58;26.67;;;9.05;;
74892;SDS011;63446;56.272;43.922;2022-12-29T02:04:25;31.90;;;10.82;;
74892;SDS011;63446;56.272;43.922;2022-12-29T02:06:56;30.75;;;10.50;;
74892;SDS011;63446;56.272;43.922;2022-12-29T02:09:28;32.15;;;10.73;;
74892;SDS011;63446;56.272;43.922;2022-12-29T02:11:54;30.07;;;10.47;;
74892;SDS011;63446;56.272;43.922;2022-12-29T02:14:20;37.22;;;11.32;;
74892;SDS011;63446;56.272;43.922;2022-12-29T02:19:54;31.02;;;11.20;;
74892;SDS011;63446;56.272;43.922;2022-12-29T02:25:37;34.67;;;11.32;;
74892;SDS011;63446;56.272;43.922;2022-12-29T02:31:01;31.38;;;10.50;;
74892;SDS011;63446;56.272;43.922;2022-12-29T02:33:45;29.00;;;9.68;;
74892;SDS011;63446;56.272;43.922;2022-12-29T02:36:42;28.53;;;9.80;;
74892;SDS011;63446;56.272;43.922;2022-12-29T02:41:46;33.03;;;10.20;;
74892;SDS011;63446;56.272;43.922;2022-12-29T02:44:36;28.33;;;9.37;;
74892;SDS011;63446;56.272;43.922;2022-12-29T02:49:46;25.63;;;9.52;;
74892;SDS011;63446;56.272;43.922;2022-12-29T02:52:22;26.00;;;9.35;;
74892;SDS011;63446;56.272;43.922;2022-12-29T02:54:54;32.00;;;9.90;;
74892;SDS011;63446;56.272;43.922;2022-12-29T02:59:56;35.70;;;9.80;;
74892;SDS011;63446;56.272;43.922;2022-12-29T03:16:02;31.15;;;10.18;;
74892;SDS011;63446;56.272;43.922;2022-12-29T03:18:42;26.85;;;10.00;;
74892;SDS011;63446;56.272;43.922;2022-12-29T03:21:18;31.02;;;10.00;;
74892;SDS011;63446;56.272;43.922;2022-12-29T03:24:26;31.50;;;10.13;;
74892;SDS011;63446;56.272;43.922;2022-12-29T03:26:57;30.42;;;9.48;;
74892;SDS011;63446;56.272;43.922;2022-12-29T03:29:27;30.50;;;10.52;;
74892;SDS011;63446;56.272;43.922;2022-12-29T03:31:56;27.17;;;9.13;;
74892;SDS011;63446;56.272;43.922;2022-12-29T03:34:25;26.10;;;8.75;;
74892;SDS011;63446;56.272;43.922;2022-12-29T03:36:57;23.70;;;8.43;;
74892;SDS011;63446;56.272;43.922;2022-12-29T03:39:28;27.65;;;9.07;;
74892;SDS011;63446;56.272;43.922;2022-12-29T03:41:58;22.48;;;7.82;;
74892;SDS011;63446;56.272;43.922;2022-12-29T03:44:33;26.08;;;8.80;;
74892;SDS011;63446;56.272;43.922;2022-12-29T03:47:02;29.42;;;9.07;;
74892;SDS011;63446;56.272;43.922;2022-12-29T03:49:30;27.93;;;8.50;;
74892;SDS011;63446;56.272;43.922;2022-12-29T03:51:56;25.38;;;8.05;;
74892;SDS011;63446;56.272;43.922;2022-12-29T03:54:22;29.50;;;9.02;;
74892;SDS011;63446;56.272;43.922;2022-12-29T03:56:48;32.85;;;10.40;;
74892;SDS011;63446;56.272;43.922;2022-12-29T03:59:19;39.43;;;10.60;;
74892;SDS011;63446;56.272;43.922;2022-12-29T04:01:45;35.05;;;10.10;;
74892;SDS011;63446;56.272;43.922;2022-12-29T04:04:12;37.65;;;11.45;;
74892;SDS011;63446;56.272;43.922;2022-12-29T04:06:38;37.97;;;11.48;;
74892;SDS011;63446;56.272;43.922;2022-12-29T04:09:07;33.53;;;10.38;;
74892;SDS011;63446;56.272;43.922;2022-12-29T04:11:40;31.47;;;9.40;;
74892;SDS011;63446;56.272;43.922;2022-12-29T04:14:06;38.50;;;13.43;;
74892;SDS011;63446;56.272;43.922;2022-12-29T04:16:33;31.52;;;12.75;;
74892;SDS011;63446;56.272;43.922;2022-12-29T04:19:02;34.88;;;10.20;;
74892;SDS011;63446;56.272;43.922;2022-12-29T04:21:29;32.75;;;10.43;;
74892;SDS011;63446;56.272;43.922;2022-12-29T04:23:56;32.33;;;10.43;;
74892;SDS011;63446;56.272;43.922;2022-12-29T04:26:22;32.47;;;11.20;;
74892;SDS011;63446;56.272;43.922;2022-12-29T04:29:14;27.90;;;9.77;;
74892;SDS011;63446;56.272;43.922;2022-12-29T04:32:12;25.05;;;8.88;;
74892;SDS011;63446;56.272;43.922;2022-12-29T04:34:44;25.35;;;8.25;;
74892;SDS011;63446;56.272;43.922;2022-12-29T04:37:10;24.73;;;6.70;;
74892;SDS011;63446;56.272;43.922;2022-12-29T04:39:36;21.83;;;7.57;;
74892;SDS011;63446;56.272;43.922;2022-12-29T04:42:03;25.48;;;7.75;;
74892;SDS011;63446;56.272;43.922;2022-12-29T04:44:31;20.52;;;7.97;;
74892;SDS011;63446;56.272;43.922;2022-12-29T04:47:11;20.43;;;7.13;;
74892;SDS011;63446;56.272;43.922;2022-12-29T04:49:42;23.88;;;7.82;;
74892;SDS011;63446;56.272;43.922;2022-12-29T04:52:29;24.05;;;7.85;;
74892;SDS011;63446;56.272;43.922;2022-12-29T04:54:55;21.98;;;6.72;;
74892;SDS011;63446;56.272;43.922;2022-12-29T04:57:21;18.83;;;7.35;;
74892;SDS011;63446;56.272;43.922;2022-12-29T04:59:52;20.13;;;6.87;;
74892;SDS011;63446;56.272;43.922;2022-12-29T05:02:18;21.02;;;7.53;;
74892;SDS011;63446;56.272;43.922;2022-12-29T05:04:46;23.55;;;7.80;;
74892;SDS011;63446;56.272;43.922;2022-12-29T05:07:12;19.67;;;7.23;;
74892;SDS011;63446;56.272;43.922;2022-12-29T05:09:38;19.35;;;6.63;;
74892;SDS011;63446;56.272;43.922;2022-12-29T05:12:04;17.23;;;6.50;;
74892;SDS011;63446;56.272;43.922;2022-12-29T05:14:32;24.15;;;7.57;;
74892;SDS011;63446;56.272;43.922;2022-12-29T05:20:39;21.90;;;8.20;;
74892;SDS011;63446;56.272;43.922;2022-12-29T05:23:05;22.92;;;7.57;;
74892;SDS011;63446;56.272;43.922;2022-12-29T05:25:31;25.08;;;7.32;;
74892;SDS011;63446;56.272;43.922;2022-12-29T05:28:18;23.70;;;7.15;;
74892;SDS011;63446;56.272;43.922;2022-12-29T05:30:48;23.00;;;7.87;;
74892;SDS011;63446;56.272;43.922;2022-12-29T05:33:17;22.60;;;8.20;;
74892;SDS011;63446;56.272;43.922;2022-12-29T05:35:44;26.65;;;8.43;;
74892;SDS011;63446;56.272;43.922;2022-12-29T05:38:11;22.13;;;7.93;;
74892;SDS011;63446;56.272;43.922;2022-12-29T05:40:37;27.15;;;8.73;;
74892;SDS011;63446;56.272;43.922;2022-12-29T05:43:08;20.93;;;7.40;;
74892;SDS011;63446;56.272;43.922;2022-12-29T05:45:54;21.13;;;8.00;;
74892;SDS011;63446;56.272;43.922;2022-12-29T05:48:34;22.65;;;7.55;;
74892;SDS011;63446;56.272;43.922;2022-12-29T05:51:10;19.85;;;7.43;;
74892;SDS011;63446;56.272;43.922;2022-12-29T05:54:31;21.08;;;6.95;;
74892;SDS011;63446;56.272;43.922;2022-12-29T05:56:58;18.50;;;6.40;;
74892;SDS011;63446;56.272;43.922;2022-12-29T05:59:24;21.50;;;7.38;;
74892;SDS011;63446;56.272;43.922;2022-12-29T06:01:52;19.95;;;7.65;;
74892;SDS011;63446;56.272;43.922;2022-12-29T06:04:19;22.40;;;7.43;;
74892;SDS011;63446;56.272;43.922;2022-12-29T06:06:46;20.73;;;8.03;;
74892;SDS011;63446;56.272;43.922;2022-12-29T06:09:20;19.67;;;7.15;;
74892;SDS011;63446;56.272;43.922;2022-12-29T06:11:46;21.63;;;8.13;;
74892;SDS011;63446;56.272;43.922;2022-12-29T06:14:13;23.63;;;7.55;;
74892;SDS011;63446;56.272;43.922;2022-12-29T06:16:41;21.35;;;6.75;;
74892;SDS011;63446;56.272;43.922;2022-12-29T06:19:10;22.00;;;8.07;;
74892;SDS011;63446;56.272;43.922;2022-12-29T06:21:37;19.88;;;7.82;;
74892;SDS011;63446;56.272;43.922;2022-12-29T06:24:03;22.92;;;7.97;;
74892;SDS011;63446;56.272;43.922;2022-12-29T06:26:34;22.58;;;7.55;;
74892;SDS011;63446;56.272;43.922;2022-12-29T06:29:00;23.00;;;7.07;;
74892;SDS011;63446;56.272;43.922;2022-12-29T06:31:28;19.87;;;7.47;;
74892;SDS011;63446;56.272;43.922;2022-12-29T06:33:53;22.40;;;7.78;;
74892;SDS011;63446;56.272;43.922;2022-12-29T06:36:20;19.50;;;7.32;;
74892;SDS011;63446;56.272;43.922;2022-12-29T06:38:46;24.33;;;8.50;;
74892;SDS011;63446;56.272;43.922;2022-12-29T06:41:13;20.58;;;6.97;;
74892;SDS011;63446;56.272;43.922;2022-12-29T06:44:14;20.33;;;7.60;;
74892;SDS011;63446;56.272;43.922;2022-12-29T06:46:56;19.65;;;7.60;;
74892;SDS011;63446;56.272;43.922;2022-12-29T06:49:22;25.55;;;8.00;;
74892;SDS011;63446;56.272;43.922;2022-12-29T06:51:48;22.23;;;8.43;;
74892;SDS011;63446;56.272;43.922;2022-12-29T06:54:14;19.67;;;7.10;;
74892;SDS011;63446;56.272;43.922;2022-12-29T06:56:40;20.45;;;7.03;;
74892;SDS011;63446;56.272;43.922;2022-12-29T06:59:06;17.27;;;6.50;;
74892;SDS011;63446;56.272;43.922;2022-12-29T07:01:32;19.85;;;6.22;;
74892;SDS011;63446;56.272;43.922;2022-12-29T07:03:58;15.90;;;6.10;;
74892;SDS011;63446;56.272;43.922;2022-12-29T07:06:24;17.23;;;6.43;;
74892;SDS011;63446;56.272;43.922;2022-12-29T07:08:50;19.63;;;6.30;;
74892;SDS011;63446;56.272;43.922;2022-12-29T07:11:17;21.02;;;7.07;;
74892;SDS011;63446;56.272;43.922;2022-12-29T07:13:42;20.55;;;7.13;;
74892;SDS011;63446;56.272;43.922;2022-12-29T07:16:09;20.97;;;6.97;;
74892;SDS011;63446;56.272;43.922;2022-12-29T07:18:35;22.65;;;6.82;;
74892;SDS011;63446;56.272;43.922;2022-12-29T07:21:02;22.90;;;7.63;;
74892;SDS011;63446;56.272;43.922;2022-12-29T07:23:29;21.50;;;7.40;;
74892;SDS011;63446;56.272;43.922;2022-12-29T07:26:01;17.13;;;6.70;;
74892;SDS011;63446;56.272;43.922;2022-12-29T07:28:30;20.00;;;7.50;;
74892;SDS011;63446;56.272;43.922;2022-12-29T07:30:56;17.60;;;7.13;;
74892;SDS011;63446;56.272;43.922;2022-12-29T07:33:23;20.95;;;7.32;;
74892;SDS011;63446;56.272;43.922;2022-12-29T07:35:48;22.77;;;7.60;;
74892;SDS011;63446;56.272;43.922;2022-12-29T07:38:15;20.80;;;7.33;;
74892;SDS011;63446;56.272;43.922;2022-12-29T07:40:42;22.60;;;7.93;;
74892;SDS011;63446;56.272;43.922;2022-12-29T07:43:10;17.65;;;7.10;;
74892;SDS011;63446;56.272;43.922;2022-12-29T07:45:43;20.55;;;7.32;;
74892;SDS011;63446;56.272;43.922;2022-12-29T07:48:08;19.73;;;7.05;;
74892;SDS011;63446;56.272;43.922;2022-12-29T07:50:35;17.53;;;6.60;;
74892;SDS011;63446;56.272;43.922;2022-12-29T07:53:02;17.77;;;6.88;;
74892;SDS011;63446;56.272;43.922;2022-12-29T07:55:29;17.65;;;6.85;;
74892;SDS011;63446;56.272;43.922;2022-12-29T07:57:55;22.48;;;7.28;;
74892;SDS011;63446;56.272;43.922;2022-12-29T08:00:22;20.07;;;7.23;;
74892;SDS011;63446;56.272;43.922;2022-12-29T08:02:48;18.83;;;7.30;;
74892;SDS011;63446;56.272;43.922;2022-12-29T08:05:15;21.95;;;7.13;;
74892;SDS011;63446;56.272;43.922;2022-12-29T08:07:42;23.38;;;7.82;;
74892;SDS011;63446;56.272;43.922;2022-12-29T08:10:09;26.02;;;9.00;;
74892;SDS011;63446;56.272;43.922;2022-12-29T08:12:37;25.93;;;8.30;;
74892;SDS011;63446;56.272;43.922;2022-12-29T08:15:04;21.63;;;7.95;;
74892;SDS011;63446;56.272;43.922;2022-12-29T08:17:30;19.88;;;6.85;;
74892;SDS011;63446;56.272;43.922;2022-12-29T08:19:58;18.17;;;6.82;;
74892;SDS011;63446;56.272;43.922;2022-12-29T08:22:24;18.88;;;6.18;;
74892;SDS011;63446;56.272;43.922;2022-12-29T08:24:50;18.73;;;6.63;;
74892;SDS011;63446;56.272;43.922;2022-12-29T08:27:16;19.10;;;6.35;;
74892;SDS011;63446;56.272;43.922;2022-12-29T08:29:43;15.82;;;6.18;;
74892;SDS011;63446;56.272;43.922;2022-12-29T08:32:09;19.55;;;6.45;;
74892;SDS011;63446;56.272;43.922;2022-12-29T08:34:35;21.67;;;7.40;;
74892;SDS011;63446;56.272;43.922;2022-12-29T08:37:01;20.03;;;7.30;;
74892;SDS011;63446;56.272;43.922;2022-12-29T08:39:26;16.17;;;6.47;;
74892;SDS011;63446;56.272;43.922;2022-12-29T08:41:53;24.20;;;7.77;;
74892;SDS011;63446;56.272;43.922;2022-12-29T08:44:18;19.58;;;8.32;;
74892;SDS011;63446;56.272;43.922;2022-12-29T08:46:44;22.40;;;7.23;;
74892;SDS011;63446;56.272;43.922;2022-12-29T08:49:10;22.00;;;8.40;;
74892;SDS011;63446;56.272;43.922;2022-12-29T08:51:37;22.02;;;9.02;;
74892;SDS011;63446;56.272;43.922;2022-12-29T08:54:03;24.43;;;8.67;;
74892;SDS011;63446;56.272;43.922;2022-12-29T08:56:30;26.85;;;9.25;;
74892;SDS011;63446;56.272;43.922;2022-12-29T08:58:58;23.75;;;9.38;;
74892;SDS011;63446;56.272;43.922;2022-12-29T09:01:27;37.63;;;11.57;;
74892;SDS011;63446;56.272;43.922;2022-12-29T09:03:53;23.03;;;8.73;;
74892;SDS011;63446;56.272;43.922;2022-12-29T09:06:19;24.05;;;9.27;;
74892;SDS011;63446;56.272;43.922;2022-12-29T09:08:45;26.35;;;10.00;;
74892;SDS011;63446;56.272;43.922;2022-12-29T09:13:42;30.70;;;11.90;;
74892;SDS011;63446;56.272;43.922;2022-12-29T09:16:08;59.00;;;22.00;;
74892;SDS011;63446;56.272;43.922;2022-12-29T09:18:34;33.25;;;12.05;;
74892;SDS011;63446;56.272;43.922;2022-12-29T09:21:01;31.33;;;12.52;;
74892;SDS011;63446;56.272;43.922;2022-12-29T09:23:29;32.90;;;12.35;;
74892;SDS011;63446;56.272;43.922;2022-12-29T09:25:55;30.50;;;11.50;;
74892;SDS011;63446;56.272;43.922;2022-12-29T09:28:21;26.80;;;10.10;;
74892;SDS011;63446;56.272;43.922;2022-12-29T09:30:48;26.15;;;9.80;;
74892;SDS011;63446;56.272;43.922;2022-12-29T09:33:14;25.45;;;8.18;;
74892;SDS011;63446;56.272;43.922;2022-12-29T09:35:44;21.23;;;8.43;;
74892;SDS011;63446;56.272;43.922;2022-12-29T09:38:15;20.85;;;7.78;;
74892;SDS011;63446;56.272;43.922;2022-12-29T09:40:43;23.83;;;8.32;;
74892;SDS011;63446;56.272;43.922;2022-12-29T09:48:41;21.00;;;8.00;;
74892;SDS011;63446;56.272;43.922;2022-12-29T09:51:13;24.90;;;8.43;;
74892;SDS011;63446;56.272;43.922;2022-12-29T09:53:46;24.98;;;8.05;;
74892;SDS011;63446;56.272;43.922;2022-12-29T09:56:25;26.48;;;9.68;;
74892;SDS011;63446;56.272;43.922;2022-12-29T09:58:54;25.00;;;9.20;;
74892;SDS011;63446;56.272;43.922;2022-12-29T10:04:29;28.88;;;9.18;;
74892;SDS011;63446;56.272;43.922;2022-12-29T10:06:57;24.50;;;8.93;;
74892;SDS011;63446;56.272;43.922;2022-12-29T10:12:15;30.33;;;9.30;;
74892;SDS011;63446;56.272;43.922;2022-12-29T10:23:27;29.75;;;9.80;;
74892;SDS011;63446;56.272;43.922;2022-12-29T10:25:56;26.48;;;9.57;;
74892;SDS011;63446;56.272;43.922;2022-12-29T10:28:37;27.47;;;9.03;;
74892;SDS011;63446;56.272;43.922;2022-12-29T10:31:16;31.10;;;9.40;;
74892;SDS011;63446;56.272;43.922;2022-12-29T10:33:48;26.70;;;10.20;;
74892;SDS011;63446;56.272;43.922;2022-12-29T10:36:22;27.67;;;9.63;;
74892;SDS011;63446;56.272;43.922;2022-12-29T10:39:21;26.00;;;9.00;;
74892;SDS011;63446;56.272;43.922;2022-12-29T10:41:55;27.13;;;9.40;;
74892;SDS011;63446;56.272;43.922;2022-12-29T10:44:29;30.13;;;9.70;;
74892;SDS011;63446;56.272;43.922;2022-12-29T10:46:58;28.90;;;9.77;;
74892;SDS011;63446;56.272;43.922;2022-12-29T10:49:26;24.25;;;9.55;;
74892;SDS011;63446;56.272;43.922;2022-12-29T10:51:54;26.08;;;10.27;;
74892;SDS011;63446;56.272;43.922;2022-12-29T11:00:00;24.30;;;9.02;;
74892;SDS011;63446;56.272;43.922;2022-12-29T11:02:43;24.15;;;8.00;;
74892;SDS011;63446;56.272;43.922;2022-12-29T11:07:53;23.87;;;8.20;;
74892;SDS011;63446;56.272;43.922;2022-12-29T11:13:03;23.83;;;9.05;;
74892;SDS011;63446;56.272;43.922;2022-12-29T11:15:41;28.15;;;8.57;;
74892;SDS011;63446;56.272;43.922;2022-12-29T11:18:19;26.65;;;8.75;;
74892;SDS011;63446;56.272;43.922;2022-12-29T11:20:53;27.77;;;8.83;;
74892;SDS011;63446;56.272;43.922;2022-12-29T11:23:22;23.92;;;7.70;;
74892;SDS011;63446;56.272;43.922;2022-12-29T11:28:43;22.02;;;8.23;;
74892;SDS011;63446;56.272;43.922;2022-12-29T11:31:12;27.42;;;8.90;;
74892;SDS011;63446;56.272;43.922;2022-12-29T11:33:42;26.27;;;8.63;;
74892;SDS011;63446;56.272;43.922;2022-12-29T11:36:13;24.92;;;8.50;;
74892;SDS011;63446;56.272;43.922;2022-12-29T11:38:46;25.83;;;8.60;;
74892;SDS011;63446;56.272;43.922;2022-12-29T11:41:25;20.75;;;7.90;;
74892;SDS011;63446;56.272;43.922;2022-12-29T11:44:00;25.20;;;7.72;;
74892;SDS011;63446;56.272;43.922;2022-12-29T11:46:31;27.67;;;7.63;;
74892;SDS011;63446;56.272;43.922;2022-12-29T11:48:59;22.08;;;8.07;;
74892;SDS011;63446;56.272;43.922;2022-12-29T11:51:45;23.98;;;8.20;;
74892;SDS011;63446;56.272;43.922;2022-12-29T11:54:25;21.38;;;7.28;;
74892;SDS011;63446;56.272;43.922;2022-12-29T11:56:52;23.50;;;7.30;;
74892;SDS011;63446;56.272;43.922;2022-12-29T12:02:00;18.75;;;6.57;;
74892;SDS011;63446;56.272;43.922;2022-12-29T12:04:36;25.00;;;7.55;;
74892;SDS011;63446;56.272;43.922;2022-12-29T12:07:11;21.73;;;7.55;;
74892;SDS011;63446;56.272;43.922;2022-12-29T12:09:43;19.63;;;7.18;;
74892;SDS011;63446;56.272;43.922;2022-12-29T12:12:25;16.77;;;5.83;;
74892;SDS011;63446;56.272;43.922;2022-12-29T12:14:58;18.52;;;6.25;;
74892;SDS011;63446;56.272;43.922;2022-12-29T12:17:50;19.27;;;6.43;;
74892;SDS011;63446;56.272;43.922;2022-12-29T12:23:06;18.85;;;6.15;;
74892;SDS011;63446;56.272;43.922;2022-12-29T12:25:51;20.80;;;6.50;;
74892;SDS011;63446;56.272;43.922;2022-12-29T12:28:54;18.17;;;6.10;;
74892;SDS011;63446;56.272;43.922;2022-12-29T12:34:38;17.83;;;6.30;;
74892;SDS011;63446;56.272;43.922;2022-12-29T12:37:12;15.18;;;5.95;;
74892;SDS011;63446;56.272;43.922;2022-12-29T12:59:41;16.38;;;6.40;;
74892;SDS011;63446;56.272;43.922;2022-12-29T13:16:13;20.35;;;7.05;;
74892;SDS011;63446;56.272;43.922;2022-12-29T13:26:24;21.92;;;7.72;;
74892;SDS011;63446;56.272;43.922;2022-12-29T13:34:53;20.33;;;7.68;;
74892;SDS011;63446;56.272;43.922;2022-12-29T13:37:29;25.38;;;7.90;;
74892;SDS011;63446;56.272;43.922;2022-12-29T13:39:59;28.35;;;8.65;;
74892;SDS011;63446;56.272;43.922;2022-12-29T13:42:30;24.88;;;9.38;;
74892;SDS011;63446;56.272;43.922;2022-12-29T13:45:16;24.47;;;8.63;;
74892;SDS011;63446;56.272;43.922;2022-12-29T13:47:51;26.58;;;9.27;;
74892;SDS011;63446;56.272;43.922;2022-12-29T13:50:23;25.35;;;9.38;;
74892;SDS011;63446;56.272;43.922;2022-12-29T13:52:59;25.35;;;8.80;;
74892;SDS011;63446;56.272;43.922;2022-12-29T14:06:30;27.42;;;8.27;;
74892;SDS011;63446;56.272;43.922;2022-12-29T14:09:03;26.58;;;8.63;;
74892;SDS011;63446;56.272;43.922;2022-12-29T14:11:32;24.07;;;8.40;;
74892;SDS011;63446;56.272;43.922;2022-12-29T14:14:19;30.85;;;9.63;;
74892;SDS011;63446;56.272;43.922;2022-12-29T14:16:48;26.67;;;9.25;;
74892;SDS011;63446;56.272;43.922;2022-12-29T14:19:16;28.27;;;9.82;;
74892;SDS011;63446;56.272;43.922;2022-12-29T14:21:56;23.63;;;8.52;;
74892;SDS011;63446;56.272;43.922;2022-12-29T14:24:35;21.97;;;8.20;;
74892;SDS011;63446;56.272;43.922;2022-12-29T14:32:49;24.30;;;8.48;;
74892;SDS011;63446;56.272;43.922;2022-12-29T14:34:59;26.58;;;9.65;;
74892;SDS011;63446;56.272;43.922;2022-12-29T14:37:37;22.58;;;8.25;;
74892;SDS011;63446;56.272;43.922;2022-12-29T14:40:22;33.38;;;9.98;;
74892;SDS011;63446;56.272;43.922;2022-12-29T14:42:53;32.17;;;9.82;;
74892;SDS011;63446;56.272;43.922;2022-12-29T14:47:50;27.88;;;9.13;;
74892;SDS011;63446;56.272;43.922;2022-12-29T14:50:41;25.92;;;9.48;;
74892;SDS011;63446;56.272;43.922;2022-12-29T14:53:32;26.55;;;9.98;;
74892;SDS011;63446;56.272;43.922;2022-12-29T14:56:11;30.98;;;10.32;;
74892;SDS011;63446;56.272;43.922;2022-12-29T15:01:19;25.83;;;9.85;;
74892;SDS011;63446;56.272;43.922;2022-12-29T15:03:49;25.65;;;9.20;;
74892;SDS011;63446;56.272;43.922;2022-12-29T15:06:17;25.88;;;8.55;;
74892;SDS011;63446;56.272;43.922;2022-12-29T15:09:04;24.60;;;8.63;;
74892;SDS011;63446;56.272;43.922;2022-12-29T15:11:51;24.20;;;7.93;;
74892;SDS011;63446;56.272;43.922;2022-12-29T15:16:54;25.15;;;8.02;;
74892;SDS011;63446;56.272;43.922;2022-12-29T15:19:22;23.98;;;7.78;;
74892;SDS011;63446;56.272;43.922;2022-12-29T15:21:48;55.50;;;17.90;;
74892;SDS011;63446;56.272;43.922;2022-12-29T15:24:14;26.43;;;8.97;;
74892;SDS011;63446;56.272;43.922;2022-12-29T15:26:42;22.25;;;7.68;;
74892;SDS011;63446;56.272;43.922;2022-12-29T15:32:14;23.73;;;7.72;;
74892;SDS011;63446;56.272;43.922;2022-12-29T15:34:42;21.40;;;7.70;;
74892;SDS011;63446;56.272;43.922;2022-12-29T15:39:58;25.05;;;8.27;;
74892;SDS011;63446;56.272;43.922;2022-12-29T15:45:12;21.87;;;8.07;;
74892;SDS011;63446;56.272;43.922;2022-12-29T15:47:41;19.55;;;7.15;;
74892;SDS011;63446;56.272;43.922;2022-12-29T15:50:14;24.80;;;7.72;;
74892;SDS011;63446;56.272;43.922;2022-12-29T15:52:47;17.92;;;6.30;;
74892;SDS011;63446;56.272;43.922;2022-12-29T15:55:21;18.58;;;6.68;;
74892;SDS011;63446;56.272;43.922;2022-12-29T15:58:21;24.92;;;7.93;;
74892;SDS011;63446;56.272;43.922;2022-12-29T16:00:51;18.00;;;6.43;;
74892;SDS011;63446;56.272;43.922;2022-12-29T16:03:19;19.30;;;7.03;;
74892;SDS011;63446;56.272;43.922;2022-12-29T16:05:54;21.67;;;7.00;;
74892;SDS011;63446;56.272;43.922;2022-12-29T16:08:24;20.50;;;7.20;;
74892;SDS011;63446;56.272;43.922;2022-12-29T16:10:58;22.42;;;7.43;;
74892;SDS011;63446;56.272;43.922;2022-12-29T16:16:09;23.58;;;7.05;;
74892;SDS011;63446;56.272;43.922;2022-12-29T16:18:41;21.00;;;7.65;;
74892;SDS011;63446;56.272;43.922;2022-12-29T16:21:15;21.30;;;7.00;;
74892;SDS011;63446;56.272;43.922;2022-12-29T16:23:46;19.77;;;7.45;;
74892;SDS011;63446;56.272;43.922;2022-12-29T16:26:16;19.30;;;7.45;;
74892;SDS011;63446;56.272;43.922;2022-12-29T16:28:44;19.63;;;7.45;;
74892;SDS011;63446;56.272;43.922;2022-12-29T16:31:23;28.30;;;9.02;;
74892;SDS011;63446;56.272;43.922;2022-12-29T16:34:09;24.00;;;8.27;;
74892;SDS011;63446;56.272;43.922;2022-12-29T16:36:51;23.33;;;7.90;;
74892;SDS011;63446;56.272;43.922;2022-12-29T16:41:56;27.38;;;9.23;;
74892;SDS011;63446;56.272;43.922;2022-12-29T16:44:23;23.67;;;9.20;;
74892;SDS011;63446;56.272;43.922;2022-12-29T16:49:33;27.60;;;10.15;;
74892;SDS011;63446;56.272;43.922;2022-12-29T16:52:00;27.90;;;9.60;;
74892;SDS011;63446;56.272;43.922;2022-12-29T16:54:37;21.50;;;7.50;;
74892;SDS011;63446;56.272;43.922;2022-12-29T16:57:06;24.92;;;7.95;;
74892;SDS011;63446;56.272;43.922;2022-12-29T17:02:05;24.65;;;8.68;;
74892;SDS011;63446;56.272;43.922;2022-12-29T17:04:34;25.17;;;9.20;;
74892;SDS011;63446;56.272;43.922;2022-12-29T17:06:59;28.90;;;8.57;;
74892;SDS011;63446;56.272;43.922;2022-12-29T17:09:26;28.17;;;9.90;;
74892;SDS011;63446;56.272;43.922;2022-12-29T17:11:57;72.22;;;19.77;;
74892;SDS011;63446;56.272;43.922;2022-12-29T17:20:01;55.65;;;15.25;;
74892;SDS011;63446;56.272;43.922;2022-12-29T17:22:32;127.50;;;30.70;;
74892;SDS011;63446;56.272;43.922;2022-12-29T17:24:59;76.18;;;21.33;;
74892;SDS011;63446;56.272;43.922;2022-12-29T17:27:30;47.05;;;15.23;;
74892;SDS011;63446;56.272;43.922;2022-12-29T17:30:05;24.67;;;8.43;;
74892;SDS011;63446;56.272;43.922;2022-12-29T17:32:37;22.73;;;8.55;;
74892;SDS011;63446;56.272;43.922;2022-12-29T17:35:04;26.35;;;7.85;;
74892;SDS011;63446;56.272;43.922;2022-12-29T17:37:31;21.73;;;7.47;;
74892;SDS011;63446;56.272;43.922;2022-12-29T17:39:59;22.40;;;8.20;;
74892;SDS011;63446;56.272;43.922;2022-12-29T17:42:25;27.10;;;8.98;;